Terminal Aerodrome Forecast
Issued by NWS

Home | Current Version | Previous Version | Text Only | Print | Product List | Glossary On
Versions: 1 2 3 4 5 6 7 8 9 10 11 12 13 14 15 16 17 18 19 20 21 22 23 24 25 26 27 28 29
000
FTUS41 KBUF 232102 AAB
TAFJHW
TAF AMD
KJHW 232102Z 2321/2418 06011G14KT P6SM BKN080
     FM232300 07010G16KT 6SM -RA OVC025
     FM240300 06008KT 5SM -RASN OVC007
     FM240500 05007KT 1SM -SN OVC003
     FM241200 03007KT P6SM VCSH OVC003
     FM241700 34007KT P6SM OVC003
      AMD LTD TO CLD VIS AND WIND=

USA.gov is the U.S. government's official web portal to all federal, state and local government web resources and services.